Time;durP1;ratioP1;P1;durP2;ratioP2;P2;SDS_P1;SDS_P2;PMS_P1;PMS_P2;Temp;Humidity;BMP_temperature;BMP_pressure;BME280_temperature;BME280_humidity;BME280_pressure;Samples;Min_cycle;Max_cycle;Signal;HPM_P1;HPM_P2
2022/04/26 03:38:16;;;;;;;28.08;14.10;;;;;;;;;;5087291;28;20052;-72
2022/04/26 03:40:42;;;;;;;30.77;14.40;;;;;;;;;;5087872;28;20127;-71
2022/04/26 03:43:08;;;;;;;31.02;14.57;;;;;;;;;;5088509;28;20409;-71
2022/04/26 03:45:34;;;;;;;30.15;13.65;;;;;;;;;;5088347;28;20360;-71
2022/04/26 03:48:00;;;;;;;24.88;13.48;;;;;;;;;;5068539;28;20121;-70
2022/04/26 03:50:26;;;;;;;26.25;12.50;;;;;;;;;;5070773;28;20197;-70
2022/04/26 03:52:53;;;;;;;31.25;11.45;;;;;;;;;;5087618;28;20100;-71
2022/04/26 03:55:20;;;;;;;26.98;11.68;;;;;;;;;;5089327;28;20444;-70
2022/04/26 03:57:47;;;;;;;28.13;12.50;;;;;;;;;;5086593;28;20131;-72
2022/04/26 04:00:13;;;;;;;28.75;12.10;;;;;;;;;;5067734;28;20043;-71
2022/04/26 04:02:39;;;;;;;24.35;12.63;;;;;;;;;;5078215;28;20044;-71
2022/04/26 04:05:05;;;;;;;22.63;11.70;;;;;;;;;;5087702;28;20134;-71
2022/04/26 04:07:31;;;;;;;21.65;11.38;;;;;;;;;;5089323;28;20076;-70
2022/04/26 04:09:57;;;;;;;21.60;11.30;;;;;;;;;;5088131;28;20100;-71
2022/04/26 04:12:23;;;;;;;25.98;10.60;;;;;;;;;;5070995;28;20098;-70
2022/04/26 04:14:49;;;;;;;28.95;11.35;;;;;;;;;;5068407;28;20144;-74
2022/04/26 04:17:15;;;;;;;28.58;10.90;;;;;;;;;;5069482;28;20086;-71
2022/04/26 04:19:41;;;;;;;29.63;10.85;;;;;;;;;;5087513;28;20048;-72
2022/04/26 04:22:07;;;;;;;26.85;10.60;;;;;;;;;;5086772;28;20040;-70
2022/04/26 04:24:33;;;;;;;23.27;10.25;;;;;;;;;;5087416;28;20134;-74
2022/04/26 04:26:59;;;;;;;23.13;10.10;;;;;;;;;;5087658;28;20040;-71
2022/04/26 04:29:26;;;;;;;26.48;10.07;;;;;;;;;;5069606;28;20059;-71
2022/04/26 04:31:52;;;;;;;23.48;9.40;;;;;;;;;;5065120;28;20365;-72
2022/04/26 04:34:18;;;;;;;22.58;9.07;;;;;;;;;;5067563;28;20194;-71
2022/04/26 04:36:44;;;;;;;24.38;9.90;;;;;;;;;;5079671;28;20414;-71
2022/04/26 04:39:13;;;;;;;22.20;9.05;;;;;;;;;;5077719;28;20075;-71
2022/04/26 04:41:39;;;;;;;26.30;10.63;;;;;;;;;;5076545;28;20048;-71
2022/04/26 04:44:05;;;;;;;19.55;9.23;;;;;;;;;;5087306;28;20036;-73
2022/04/26 04:46:32;;;;;;;25.38;9.77;;;;;;;;;;5087651;28;20096;-70
2022/04/26 04:48:58;;;;;;;22.20;10.18;;;;;;;;;;5084554;28;20041;-72
2022/04/26 04:51:24;;;;;;;20.65;9.95;;;;;;;;;;5076974;28;20492;-70
2022/04/26 04:53:50;;;;;;;21.65;10.02;;;;;;;;;;5078457;28;20056;-70
2022/04/26 04:56:16;;;;;;;22.73;10.25;;;;;;;;;;5088630;28;20052;-70
2022/04/26 04:58:42;;;;;;;18.98;9.65;;;;;;;;;;5075612;28;20135;-72
2022/04/26 05:01:08;;;;;;;21.42;9.80;;;;;;;;;;5070207;28;20050;-70
2022/04/26 05:03:34;;;;;;;22.80;10.57;;;;;;;;;;5073505;28;20051;-72
2022/04/26 05:06:00;;;;;;;19.63;9.65;;;;;;;;;;5084666;28;20052;-73
2022/04/26 05:08:26;;;;;;;24.75;9.43;;;;;;;;;;5087568;28;20059;-71
2022/04/26 05:10:53;;;;;;;21.35;9.80;;;;;;;;;;5076872;28;20072;-71
2022/04/26 05:13:19;;;;;;;20.70;8.63;;;;;;;;;;5066907;28;20131;-70
2022/04/26 05:15:45;;;;;;;20.45;8.90;;;;;;;;;;5071302;28;20044;-72
2022/04/26 05:18:12;;;;;;;20.88;9.85;;;;;;;;;;5070872;28;20151;-73
2022/04/26 05:20:39;;;;;;;25.45;9.88;;;;;;;;;;5069528;28;20056;-71
2022/04/26 05:25:50;;;;;;;23.15;9.68;;;;;;;;;;5090767;28;20209;-74
2022/04/26 05:28:16;;;;;;;19.48;9.10;;;;;;;;;;5085731;28;20076;-73
2022/04/26 05:30:42;;;;;;;21.98;9.10;;;;;;;;;;5091833;28;20129;-74
2022/04/26 05:33:08;;;;;;;21.35;9.65;;;;;;;;;;5090690;28;20124;-72
2022/04/26 05:35:34;;;;;;;20.20;9.30;;;;;;;;;;5076284;28;20109;-72
2022/04/26 05:38:00;;;;;;;21.65;10.52;;;;;;;;;;5071498;28;20051;-74
2022/04/26 05:40:26;;;;;;;18.20;9.15;;;;;;;;;;5089071;28;20051;-73
2022/04/26 05:42:52;;;;;;;22.58;9.27;;;;;;;;;;5083780;28;20138;-74
2022/04/26 05:45:18;;;;;;;20.05;9.93;;;;;;;;;;5091300;28;20139;-73
2022/04/26 05:47:45;;;;;;;22.70;10.35;;;;;;;;;;5089695;28;20077;-72
2022/04/26 05:50:12;;;;;;;25.40;10.00;;;;;;;;;;5078403;28;20149;-70
2022/04/26 05:52:38;;;;;;;;;;;;;;;;;;5072372;28;20039;-77
2022/04/26 05:55:04;;;;;;;19.27;10.02;;;;;;;;;;5081751;28;19934;-73
2022/04/26 05:57:31;;;;;;;20.75;9.85;;;;;;;;;;5074639;28;20130;-74
2022/04/26 05:59:57;;;;;;;;;;;;;;;;;;5074652;28;20331;-72
2022/04/26 06:02:23;;;;;;;26.65;9.45;;;;;;;;;;5081248;28;20014;-73
2022/04/26 06:04:49;;;;;;;24.67;10.43;;;;;;;;;;5070881;28;20047;-71
2022/04/26 06:07:15;;;;;;;53.28;29.35;;;;;;;;;;5074272;28;20078;-73
2022/04/26 06:09:41;;;;;;;23.08;9.52;;;;;;;;;;5081000;28;20036;-74
2022/04/26 06:12:07;;;;;;;20.42;8.18;;;;;;;;;;5073651;28;20054;-72
2022/04/26 06:14:33;;;;;;;19.90;7.55;;;;;;;;;;5086640;28;20132;-74
2022/04/26 06:17:00;;;;;;;20.20;7.50;;;;;;;;;;5093756;28;20134;-75
2022/04/26 06:19:26;;;;;;;21.65;7.22;;;;;;;;;;5096584;28;20360;-74
2022/04/26 06:21:52;;;;;;;26.27;7.65;;;;;;;;;;5089392;28;20318;-74
2022/04/26 06:24:18;;;;;;;22.73;7.70;;;;;;;;;;5087916;28;20351;-72
2022/04/26 06:26:44;;;;;;;24.05;7.82;;;;;;;;;;5068025;28;20326;-76
2022/04/26 06:29:10;;;;;;;20.45;7.10;;;;;;;;;;5072928;28;20066;-75
2022/04/26 06:31:36;;;;;;;17.52;6.72;;;;;;;;;;5076815;28;20039;-72
2022/04/26 06:34:02;;;;;;;18.38;6.78;;;;;;;;;;5085951;28;20036;-75
2022/04/26 06:36:28;;;;;;;22.50;6.80;;;;;;;;;;5077858;28;20063;-73
2022/04/26 06:38:54;;;;;;;19.15;6.70;;;;;;;;;;5086242;28;20048;-73
2022/04/26 06:41:20;;;;;;;17.10;7.00;;;;;;;;;;5075574;28;20239;-71
2022/04/26 06:43:47;;;;;;;18.85;6.43;;;;;;;;;;5070935;28;20044;-73
2022/04/26 06:46:13;;;;;;;23.67;6.95;;;;;;;;;;5084112;28;20130;-82
2022/04/26 06:48:39;;;;;;;25.98;7.57;;;;;;;;;;5076271;28;20040;-74
2022/04/26 06:51:05;;;;;;;20.00;7.95;;;;;;;;;;5077889;28;20130;-75
2022/04/26 06:53:31;;;;;;;20.63;6.70;;;;;;;;;;5067565;28;20121;-75
2022/04/26 06:55:57;;;;;;;21.92;6.95;;;;;;;;;;5081227;28;20424;-82
2022/04/26 06:58:23;;;;;;;14.98;5.22;;;;;;;;;;5089549;28;20177;-75
2022/04/26 07:00:49;;;;;;;19.85;7.05;;;;;;;;;;5085522;28;20032;-75
2022/04/26 07:03:15;;;;;;;19.92;7.72;;;;;;;;;;5072524;28;20044;-79
2022/04/26 07:05:41;;;;;;;17.85;6.18;;;;;;;;;;5089382;28;20328;-75
2022/04/26 07:08:08;;;;;;;18.30;6.18;;;;;;;;;;5089278;28;20043;-74
2022/04/26 07:10:34;;;;;;;17.15;5.68;;;;;;;;;;5072389;28;20126;-75
2022/04/26 07:13:00;;;;;;;15.57;5.63;;;;;;;;;;5081065;28;20459;-74
2022/04/26 07:15:26;;;;;;;19.65;5.97;;;;;;;;;;5082132;28;20040;-81
2022/04/26 07:17:52;;;;;;;20.88;6.25;;;;;;;;;;5069401;28;20430;-72
2022/04/26 07:20:18;;;;;;;14.70;5.07;;;;;;;;;;5072697;28;20048;-74
2022/04/26 07:22:44;;;;;;;20.33;6.10;;;;;;;;;;5083810;28;20058;-81
2022/04/26 07:25:11;;;;;;;24.70;6.95;;;;;;;;;;5090412;28;20471;-68
2022/04/26 07:27:37;;;;;;;18.58;6.15;;;;;;;;;;5088987;28;20070;-79
2022/04/26 07:30:03;;;;;;;21.98;6.53;;;;;;;;;;5081675;28;20455;-75
2022/04/26 07:35:14;;;;;;;16.77;5.93;;;;;;;;;;5082133;28;19930;-77
2022/04/26 07:37:40;;;;;;;19.73;7.50;;;;;;;;;;5086792;28;20059;-70
2022/04/26 07:40:07;;;;;;;18.85;7.03;;;;;;;;;;5070166;28;20052;-73
2022/04/26 07:42:33;;;;;;;;;;;;;;;;;;5081999;28;20055;-80
2022/04/26 07:44:59;;;;;;;15.27;6.72;;;;;;;;;;5087956;28;20336;-84
2022/04/26 07:47:26;;;;;;;15.48;6.40;;;;;;;;;;5083023;28;20051;-75
2022/04/26 07:49:53;;;;;;;15.63;6.32;;;;;;;;;;5086564;28;20422;-74
2022/04/26 07:52:20;;;;;;;14.48;5.70;;;;;;;;;;5082911;28;20060;-70
2022/04/26 07:54:46;;;;;;;15.73;5.72;;;;;;;;;;5077199;28;20071;-71
2022/04/26 07:57:12;;;;;;;;;;;;;;;;;;5087345;28;20408;-75
2022/04/26 07:59:38;;;;;;;14.88;5.78;;;;;;;;;;5084493;28;19961;-69
2022/04/26 08:02:08;;;;;;;13.80;5.70;;;;;;;;;;5080814;28;20444;-72
2022/04/26 08:04:34;;;;;;;22.95;6.82;;;;;;;;;;5068300;28;20055;-75
2022/04/26 08:07:00;;;;;;;13.63;6.13;;;;;;;;;;5109275;27;20050;-89
2022/04/26 08:09:26;;;;;;;13.77;5.55;;;;;;;;;;5086450;28;20119;-80
2022/04/26 08:11:53;;;;;;;15.07;5.28;;;;;;;;;;5081705;28;20115;-77
2022/04/26 08:14:20;;;;;;;16.95;5.47;;;;;;;;;;5084549;28;20040;-67
2022/04/26 08:16:46;;;;;;;17.02;5.40;;;;;;;;;;5080647;28;20444;-71
2022/04/26 08:19:12;;;;;;;14.27;5.53;;;;;;;;;;5106383;27;20070;-71
2022/04/26 08:21:38;;;;;;;;;;;;;;;;;;5083179;28;20044;-77
2022/04/26 08:29:34;;;;;;;14.10;4.70;;;;;;;;;;5083565;28;20055;-70
2022/04/26 08:32:00;;;;;;;14.85;4.90;;;;;;;;;;5072677;28;20051;-70
2022/04/26 08:34:28;;;;;;;17.35;8.00;;;;;;;;;;5072443;28;20052;-68
2022/04/26 08:36:54;;;;;;;15.18;5.35;;;;;;;;;;5072162;28;20187;-68
2022/04/26 08:39:21;;;;;;;17.35;4.60;;;;;;;;;;5079702;28;20114;-67
2022/04/26 08:41:47;;;;;;;15.13;4.90;;;;;;;;;;5056299;28;20693;-69
2022/04/26 08:44:13;;;;;;;14.00;5.13;;;;;;;;;;5069335;28;20377;-75
2022/04/26 08:52:10;;;;;;;12.57;4.60;;;;;;;;;;5074604;28;20051;-74
2022/04/26 08:54:36;;;;;;;12.02;4.40;;;;;;;;;;5068490;28;20067;-74
2022/04/26 08:57:03;;;;;;;11.45;4.60;;;;;;;;;;5086161;28;20117;-78
2022/04/26 08:59:31;;;;;;;14.07;4.40;;;;;;;;;;5074052;28;20048;-72
2022/04/26 09:02:15;;;;;;;18.35;4.82;;;;;;;;;;5073845;28;20112;-74
2022/04/26 09:04:42;;;;;;;14.63;4.80;;;;;;;;;;5065724;28;20190;-81
2022/04/26 09:07:12;;;;;;;15.20;4.60;;;;;;;;;;5075768;28;20063;-80
2022/04/26 09:09:39;;;;;;;12.60;4.22;;;;;;;;;;5085768;28;20053;-81
2022/04/26 09:12:12;;;;;;;13.38;5.03;;;;;;;;;;5086587;28;20153;-76
2022/04/26 09:14:47;;;;;;;11.07;4.03;;;;;;;;;;5087870;28;20120;-79
2022/04/26 09:17:16;;;;;;;15.57;4.18;;;;;;;;;;5075570;28;20558;-69
2022/04/26 09:19:52;;;;;;;13.50;4.45;;;;;;;;;;5088096;28;20059;-71
2022/04/26 09:22:22;;;;;;;12.48;4.40;;;;;;;;;;5083624;28;20125;-70
2022/04/26 09:25:05;;;;;;;14.13;4.47;;;;;;;;;;5066920;28;20147;-71
2022/04/26 09:27:31;;;;;;;14.70;4.80;;;;;;;;;;5083704;28;20059;-79
2022/04/26 09:29:57;;;;;;;12.68;4.68;;;;;;;;;;5087882;28;20440;-75
2022/04/26 09:32:23;;;;;;;12.98;4.47;;;;;;;;;;5085044;28;20071;-83
2022/04/26 09:34:50;;;;;;;15.75;4.50;;;;;;;;;;5079277;28;20170;-72
2022/04/26 09:37:16;;;;;;;13.93;4.95;;;;;;;;;;5064900;28;20091;-70
2022/04/26 09:40:02;;;;;;;15.43;4.45;;;;;;;;;;5086451;28;20062;-73
2022/04/26 09:42:31;;;;;;;16.00;4.70;;;;;;;;;;5069765;28;20100;-75
2022/04/26 09:45:05;;;;;;;12.60;4.30;;;;;;;;;;5066893;28;20051;-73
2022/04/26 09:47:38;;;;;;;16.23;4.28;;;;;;;;;;5058364;28;20045;-83
2022/04/26 09:50:09;;;;;;;13.65;4.82;;;;;;;;;;5067152;28;20041;-74
2022/04/26 09:52:36;;;;;;;17.20;4.20;;;;;;;;;;5064388;28;20057;-70
2022/04/26 09:55:04;;;;;;;13.77;4.55;;;;;;;;;;5085864;28;20120;-79
2022/04/26 09:57:32;;;;;;;12.88;4.38;;;;;;;;;;5068065;28;20059;-71
2022/04/26 09:59:59;;;;;;;13.70;4.13;;;;;;;;;;5076395;28;20066;-71
2022/04/26 10:02:29;;;;;;;16.98;4.43;;;;;;;;;;5066607;28;20051;-79
2022/04/26 10:04:56;;;;;;;15.43;4.53;;;;;;;;;;5077233;28;20045;-67
2022/04/26 10:07:23;;;;;;;14.85;4.50;;;;;;;;;;5090579;28;20043;-72
2022/04/26 10:09:50;;;;;;;13.10;4.20;;;;;;;;;;5087236;28;20131;-69
2022/04/26 10:12:16;;;;;;;;;;;;;;;;;;5090605;28;20052;-68
2022/04/26 10:14:42;;;;;;;14.10;3.88;;;;;;;;;;5083386;28;19935;-69
2022/04/26 10:17:09;;;;;;;12.95;4.80;;;;;;;;;;5090232;28;20063;-69
2022/04/26 10:19:37;;;;;;;14.00;4.20;;;;;;;;;;5085625;28;20054;-70
2022/04/26 10:22:03;;;;;;;11.20;3.85;;;;;;;;;;5083475;28;20052;-69
2022/04/26 10:24:29;;;;;;;11.18;4.22;;;;;;;;;;5077962;28;20411;-70
2022/04/26 10:27:15;;;;;;;12.35;4.32;;;;;;;;;;5092120;28;20231;-70
2022/04/26 10:29:45;;;;;;;11.98;4.20;;;;;;;;;;5079576;28;20044;-70
2022/04/26 10:32:11;;;;;;;13.20;4.00;;;;;;;;;;5090351;28;20048;-68
2022/04/26 10:34:39;;;;;;;13.65;4.18;;;;;;;;;;5083777;28;20415;-67
2022/04/26 10:37:09;;;;;;;15.07;4.50;;;;;;;;;;5076548;28;20407;-68
2022/04/26 10:39:50;;;;;;;14.05;4.28;;;;;;;;;;5089062;28;20392;-67
2022/04/26 10:42:17;;;;;;;11.05;4.20;;;;;;;;;;5120535;27;20100;-67
2022/04/26 10:44:44;;;;;;;12.73;4.68;;;;;;;;;;5088218;28;20640;-67
2022/04/26 10:47:11;;;;;;;11.73;4.03;;;;;;;;;;5077149;28;20056;-68
2022/04/26 10:49:40;;;;;;;;;;;;;;;;;;5080134;28;20040;-67
2022/04/26 10:52:17;;;;;;;14.45;4.82;;;;;;;;;;5079808;28;19997;-70
2022/04/26 10:54:58;;;;;;;14.68;5.03;;;;;;;;;;5070831;28;20263;-67
2022/04/26 10:57:31;;;;;;;14.93;4.55;;;;;;;;;;5079356;28;20047;-67
2022/04/26 10:59:59;;;;;;;16.02;4.63;;;;;;;;;;5088304;28;20440;-67
2022/04/26 11:02:26;;;;;;;12.15;4.32;;;;;;;;;;5079793;28;20123;-78
2022/04/26 11:04:56;;;;;;;12.70;4.05;;;;;;;;;;5084984;28;20048;-71
2022/04/26 11:07:25;;;;;;;9.95;4.18;;;;;;;;;;5075668;28;20127;-70
2022/04/26 11:09:53;;;;;;;10.95;4.28;;;;;;;;;;5077986;28;20496;-79
2022/04/26 11:12:24;;;;;;;10.20;4.45;;;;;;;;;;5067363;28;20372;-70
2022/04/26 11:14:51;;;;;;;13.82;4.68;;;;;;;;;;5068778;28;20053;-69
2022/04/26 11:17:18;;;;;;;13.10;4.55;;;;;;;;;;5084878;28;20088;-68
2022/04/26 11:19:51;;;;;;;17.15;4.50;;;;;;;;;;5070038;28;20058;-69
2022/04/26 11:22:18;;;;;;;10.52;4.43;;;;;;;;;;5084012;28;20127;-67
2022/04/26 11:30:38;;;;;;;14.85;4.40;;;;;;;;;;5027710;28;20087;-66
2022/04/26 11:33:06;;;;;;;13.93;4.35;;;;;;;;;;5044813;28;20052;-67
2022/04/26 11:35:34;;;;;;;10.57;4.05;;;;;;;;;;5063966;28;20113;-66
2022/04/26 11:38:10;;;;;;;11.02;3.83;;;;;;;;;;5091645;28;20063;-65
2022/04/26 11:40:38;;;;;;;12.63;4.63;;;;;;;;;;5108429;28;20040;-73
2022/04/26 11:43:09;;;;;;;11.13;4.03;;;;;;;;;;5071705;28;20067;-68
2022/04/26 11:45:36;;;;;;;13.30;4.03;;;;;;;;;;5067324;28;20051;-66
2022/04/26 11:48:03;;;;;;;13.98;3.92;;;;;;;;;;5050469;28;20057;-65
2022/04/26 11:50:30;;;;;;;12.57;4.20;;;;;;;;;;5074737;28;20074;-65
2022/04/26 11:53:00;;;;;;;13.88;4.40;;;;;;;;;;5077905;28;20051;-68
2022/04/26 11:55:28;;;;;;;10.40;4.40;;;;;;;;;;5066768;28;20183;-67
2022/04/26 11:58:05;;;;;;;11.65;4.47;;;;;;;;;;5069829;28;20048;-65
2022/04/26 12:00:31;;;;;;;14.15;4.40;;;;;;;;;;5079613;28;20126;-67
2022/04/26 12:02:57;;;;;;;12.77;4.22;;;;;;;;;;5069047;28;20150;-77
2022/04/26 12:05:23;;;;;;;12.15;4.10;;;;;;;;;;5068599;28;20044;-69
2022/04/26 12:07:50;;;;;;;14.63;4.47;;;;;;;;;;5081572;28;20044;-70
2022/04/26 12:10:16;;;;;;;;;;;;;;;;;;5080321;28;20092;-70
2022/04/26 12:12:56;;;;;;;11.60;3.90;;;;;;;;;;5072584;28;19925;-67
2022/04/26 12:15:40;;;;;;;13.60;4.78;;;;;;;;;;5078215;28;20119;-74
2022/04/26 12:18:07;;;;;;;12.73;4.50;;;;;;;;;;5077609;28;20051;-72
2022/04/26 12:20:36;;;;;;;16.63;4.55;;;;;;;;;;5077410;28;20131;-65
2022/04/26 12:23:02;;;;;;;13.60;4.30;;;;;;;;;;5086634;28;20122;-67
2022/04/26 12:25:29;;;;;;;12.38;4.45;;;;;;;;;;5084696;28;20439;-68
2022/04/26 12:28:08;;;;;;;13.85;4.35;;;;;;;;;;5082920;28;20050;-67
2022/04/26 12:30:41;;;;;;;15.75;4.50;;;;;;;;;;5076388;28;20137;-67
2022/04/26 12:33:07;;;;;;;13.95;4.38;;;;;;;;;;5088014;28;20107;-69
2022/04/26 12:35:33;;;;;;;15.93;4.88;;;;;;;;;;5086717;28;20062;-67
2022/04/26 12:38:06;;;;;;;14.57;4.43;;;;;;;;;;5072248;28;20068;-68
2022/04/26 12:40:33;;;;;;;11.48;4.20;;;;;;;;;;5085722;28;20109;-70
2022/04/26 12:42:59;;;;;;;19.15;4.07;;;;;;;;;;5079998;28;20119;-71
2022/04/26 12:45:25;;;;;;;11.48;4.05;;;;;;;;;;5076890;28;20127;-67
2022/04/26 12:50:53;;;;;;;13.85;3.85;;;;;;;;;;5067075;28;20120;-64
2022/04/26 12:53:26;;;;;;;13.75;4.38;;;;;;;;;;5067186;28;20483;-66
2022/04/26 12:55:53;;;;;;;9.75;4.00;;;;;;;;;;5070463;28;20041;-67
2022/04/26 12:58:34;;;;;;;8.48;3.42;;;;;;;;;;5084896;28;20108;-64
2022/04/26 13:01:00;;;;;;;9.35;3.65;;;;;;;;;;5081629;28;20573;-66
2022/04/26 13:03:26;;;;;;;11.82;3.83;;;;;;;;;;5078168;28;20109;-68
2022/04/26 13:05:54;;;;;;;38.10;7.30;;;;;;;;;;5083128;28;20068;-68
2022/04/26 13:08:21;;;;;;;12.30;5.00;;;;;;;;;;5084580;28;20490;-66
2022/04/26 13:10:48;;;;;;;12.68;4.20;;;;;;;;;;5083666;28;20513;-63
2022/04/26 13:13:15;;;;;;;12.50;4.10;;;;;;;;;;5079502;28;20051;-68
2022/04/26 13:15:42;;;;;;;11.70;3.90;;;;;;;;;;5084687;28;20075;-66
2022/04/26 13:18:08;;;;;;;;;;;;;;;;;;5085493;28;20056;-67
2022/04/26 13:20:34;;;;;;;12.25;4.20;;;;;;;;;;5069798;28;19932;-68
2022/04/26 13:23:00;;;;;;;10.68;4.10;;;;;;;;;;5085852;28;20078;-67
2022/04/26 13:25:26;;;;;;;10.40;3.72;;;;;;;;;;5075361;28;20120;-67
2022/04/26 13:27:53;;;;;;;14.85;4.18;;;;;;;;;;5081261;28;20070;-65
2022/04/26 13:30:19;;;;;;;15.13;4.60;;;;;;;;;;5082078;28;20357;-66
2022/04/26 13:32:45;;;;;;;12.55;4.53;;;;;;;;;;5085106;28;20044;-64
2022/04/26 13:35:12;;;;;;;10.18;4.40;;;;;;;;;;5088150;28;20152;-67
2022/04/26 13:37:39;;;;;;;21.98;4.80;;;;;;;;;;5089738;28;20066;-66
2022/04/26 13:40:05;;;;;;;12.63;5.07;;;;;;;;;;5078630;28;20084;-67
2022/04/26 13:42:31;;;;;;;12.82;5.00;;;;;;;;;;5071266;28;20071;-66
2022/04/26 13:44:58;;;;;;;13.27;5.43;;;;;;;;;;5071333;28;20060;-67
2022/04/26 13:47:24;;;;;;;16.02;5.43;;;;;;;;;;5071062;28;20056;-66
2022/04/26 13:49:53;;;;;;;;;;;;;;;;;;5074741;28;20052;-64
2022/04/26 13:52:20;;;;;;;13.45;5.18;;;;;;;;;;5079657;28;19920;-66
2022/04/26 13:54:46;;;;;;;11.50;5.05;;;;;;;;;;5087391;28;20058;-65
2022/04/26 13:57:12;;;;;;;13.35;5.00;;;;;;;;;;5086826;28;20158;-64
2022/04/26 13:59:39;;;;;;;14.82;5.18;;;;;;;;;;5086706;28;20036;-65
2022/04/26 14:02:05;;;;;;;;;;;;;;;;;;5082861;28;20066;-66
2022/04/26 14:04:31;;;;;;;13.68;4.72;;;;;;;;;;5086457;28;19947;-66
2022/04/26 14:06:57;;;;;;;18.48;5.47;;;;;;;;;;5084213;28;20139;-68
2022/04/26 14:09:23;;;;;;;13.07;5.45;;;;;;;;;;5090514;28;20125;-67
2022/04/26 14:11:51;;;;;;;13.85;5.07;;;;;;;;;;5087938;28;20044;-62
2022/04/26 14:22:35;;;;;;;12.57;4.35;;;;;;;;;;5070941;28;20448;-67
2022/04/26 14:25:03;;;;;;;15.73;4.13;;;;;;;;;;5073393;28;20396;-67
2022/04/26 14:27:30;;;;;;;14.88;4.35;;;;;;;;;;5095641;28;20158;-65
2022/04/26 14:29:56;;;;;;;10.63;3.95;;;;;;;;;;5076957;28;20046;-63
2022/04/26 14:32:22;;;;;;;;;;;;;;;;;;5084573;28;20054;-65
2022/04/26 14:34:48;;;;;;;11.45;4.30;;;;;;;;;;5083517;28;19924;-67
2022/04/26 14:37:15;;;;;;;14.77;4.25;;;;;;;;;;5069784;28;20075;-65
2022/04/26 14:39:41;;;;;;;13.13;4.25;;;;;;;;;;5070752;28;20127;-66
2022/04/26 14:42:08;;;;;;;12.18;4.32;;;;;;;;;;5088863;28;20338;-67
2022/04/26 14:44:35;;;;;;;14.98;4.97;;;;;;;;;;5076943;28;20056;-69
2022/04/26 14:47:04;;;;;;;12.27;4.65;;;;;;;;;;5070684;28;20144;-67
2022/04/26 14:49:33;;;;;;;12.98;4.50;;;;;;;;;;5071328;28;20470;-67
2022/04/26 14:51:59;;;;;;;13.05;4.75;;;;;;;;;;5073848;28;20181;-66
2022/04/26 14:54:25;;;;;;;11.57;4.25;;;;;;;;;;5086765;28;20344;-66
2022/04/26 14:56:51;;;;;;;12.05;4.03;;;;;;;;;;5084433;28;20207;-66
2022/04/26 14:59:18;;;;;;;11.25;4.20;;;;;;;;;;5069657;28;20127;-67
2022/04/26 15:01:49;;;;;;;11.88;4.50;;;;;;;;;;5083083;28;20201;-67
2022/04/26 15:04:22;;;;;;;15.63;4.47;;;;;;;;;;5085043;28;20270;-66
2022/04/26 15:06:49;;;;;;;11.60;4.90;;;;;;;;;;5078029;28;20044;-67
2022/04/26 15:17:30;;;;;;;12.57;4.43;;;;;;;;;;5090777;28;20052;-66
2022/04/26 15:19:56;;;;;;;14.15;4.65;;;;;;;;;;5090465;28;20048;-66
2022/04/26 15:22:23;;;;;;;14.68;4.50;;;;;;;;;;5090535;28;20108;-68
2022/04/26 15:24:50;;;;;;;13.18;4.63;;;;;;;;;;5075440;28;20451;-66
2022/04/26 15:27:17;;;;;;;15.65;4.55;;;;;;;;;;5068430;28;20143;-67
2022/04/26 15:29:44;;;;;;;14.38;4.70;;;;;;;;;;5069992;28;20049;-66
2022/04/26 15:32:10;;;;;;;12.18;4.72;;;;;;;;;;5084437;28;20103;-66
2022/04/26 15:34:37;;;;;;;12.60;4.38;;;;;;;;;;5069453;28;20041;-65
2022/04/26 15:37:03;;;;;;;13.02;5.10;;;;;;;;;;5068461;28;20151;-63
2022/04/26 15:39:30;;;;;;;13.32;4.50;;;;;;;;;;5072870;28;20060;-64
2022/04/26 15:41:56;;;;;;;10.85;4.30;;;;;;;;;;5087920;28;20059;-66
2022/04/26 15:44:23;;;;;;;11.25;4.38;;;;;;;;;;5089278;28;20055;-68
2022/04/26 15:46:52;;;;;;;12.38;4.07;;;;;;;;;;5089598;28;20047;-67
2022/04/26 15:49:20;;;;;;;11.27;4.10;;;;;;;;;;5089003;28;20074;-68
2022/04/26 15:51:47;;;;;;;10.55;4.20;;;;;;;;;;5089584;28;20070;-67
2022/04/26 15:54:15;;;;;;;16.05;4.95;;;;;;;;;;5088914;28;20162;-68
2022/04/26 15:56:42;;;;;;;11.63;4.47;;;;;;;;;;5087807;28;20112;-67
2022/04/26 15:59:08;;;;;;;;;;;;;;;;;;5087130;28;20044;-67
2022/04/26 16:01:35;;;;;;;14.18;4.75;;;;;;;;;;5089482;28;20097;-66
2022/04/26 16:04:01;;;;;;;11.70;4.05;;;;;;;;;;5081207;28;20064;-67
2022/04/26 16:06:27;;;;;;;11.82;4.40;;;;;;;;;;5068719;28;20063;-68
2022/04/26 16:20:28;;;;;;;12.10;4.30;;;;;;;;;;5069245;28;20044;-68
2022/04/26 16:22:38;;;;;;;12.95;4.75;;;;;;;;;;5089361;28;20084;-67
2022/04/26 16:25:05;;;;;;;10.77;4.35;;;;;;;;;;5079595;28;20112;-71
2022/04/26 16:27:32;;;;;;;19.08;5.45;;;;;;;;;;5067481;28;20044;-68
2022/04/26 16:30:00;;;;;;;14.35;4.70;;;;;;;;;;5069120;28;20063;-67
2022/04/26 16:32:29;;;;;;;11.23;4.38;;;;;;;;;;5068175;28;20055;-68
2022/04/26 16:34:57;;;;;;;11.80;4.43;;;;;;;;;;5069486;28;20108;-70
2022/04/26 16:37:23;;;;;;;10.48;4.53;;;;;;;;;;5067114;28;20048;-68
2022/04/26 16:39:49;;;;;;;;;;;;;;;;;;5069232;28;20084;-69
2022/04/26 16:42:16;;;;;;;14.35;5.68;;;;;;;;;;5070516;28;19928;-68
2022/04/26 16:44:42;;;;;;;15.73;7.00;;;;;;;;;;5088929;28;20044;-71
2022/04/26 16:47:12;;;;;;;12.13;4.72;;;;;;;;;;5080684;28;20052;-68
2022/04/26 16:49:39;;;;;;;13.75;4.65;;;;;;;;;;5072908;28;20137;-68
2022/04/26 16:52:05;;;;;;;11.68;4.55;;;;;;;;;;5088732;28;20105;-68
2022/04/26 16:54:31;;;;;;;12.30;4.28;;;;;;;;;;5076968;28;20148;-71
2022/04/26 16:56:57;;;;;;;12.95;4.43;;;;;;;;;;5102687;28;20101;-69
2022/04/26 16:59:24;;;;;;;12.18;4.97;;;;;;;;;;5067615;28;20348;-68
2022/04/26 17:01:51;;;;;;;11.75;4.75;;;;;;;;;;5068437;28;20056;-67
2022/04/26 17:04:17;;;;;;;13.45;4.50;;;;;;;;;;5067962;28;20144;-68
2022/04/26 17:06:43;;;;;;;13.07;4.53;;;;;;;;;;5067585;28;20053;-68
2022/04/26 17:09:10;;;;;;;10.18;4.18;;;;;;;;;;5074836;28;20079;-65
2022/04/26 17:11:42;;;;;;;13.40;4.28;;;;;;;;;;5080751;28;20376;-67
2022/04/26 17:14:13;;;;;;;11.45;4.95;;;;;;;;;;5085753;28;20048;-68
2022/04/26 17:16:39;;;;;;;14.70;5.47;;;;;;;;;;5090014;28;20115;-69
2022/04/26 17:19:06;;;;;;;14.73;4.70;;;;;;;;;;5070866;28;20048;-67
2022/04/26 17:21:33;;;;;;;12.75;4.93;;;;;;;;;;5070260;28;20044;-66
2022/04/26 17:24:00;;;;;;;;;;;;;;;;;;5072506;28;20045;-66
2022/04/26 17:26:27;;;;;;;12.88;4.75;;;;;;;;;;5083181;28;19920;-67
2022/04/26 17:28:55;;;;;;;15.10;5.80;;;;;;;;;;5088544;28;20395;-67
2022/04/26 17:31:22;;;;;;;15.10;4.72;;;;;;;;;;5071702;28;20105;-67
2022/04/26 17:33:50;;;;;;;;;;;;;;;;;;5072141;28;20096;-66
2022/04/26 17:36:17;;;;;;;15.98;4.82;;;;;;;;;;5075631;28;19972;-67
2022/04/26 17:38:43;;;;;;;12.48;4.78;;;;;;;;;;5091477;28;20048;-66
2022/04/26 17:41:09;;;;;;;;;;;;;;;;;;5091413;28;20161;-66
2022/04/26 17:43:36;;;;;;;14.65;4.93;;;;;;;;;;5090696;28;20007;-68
2022/04/26 17:46:05;;;;;;;13.43;4.80;;;;;;;;;;5090266;28;20230;-66
2022/04/26 17:48:32;;;;;;;13.23;5.10;;;;;;;;;;5091947;28;20116;-66
2022/04/26 17:50:58;;;;;;;11.52;4.75;;;;;;;;;;5092222;28;20399;-67
2022/04/26 17:58:54;;;;;;;14.20;4.53;;;;;;;;;;5072485;28;20182;-67
2022/04/26 18:01:20;;;;;;;13.10;4.78;;;;;;;;;;5070227;28;20143;-67
2022/04/26 18:03:46;;;;;;;12.55;4.55;;;;;;;;;;5071702;28;20040;-66
2022/04/26 18:06:12;;;;;;;;;;;;;;;;;;5072083;28;20071;-68
2022/04/26 18:08:39;;;;;;;13.15;4.65;;;;;;;;;;5084764;28;20019;-68
2022/04/26 18:11:05;;;;;;;14.07;4.65;;;;;;;;;;5091872;28;20044;-67
2022/04/26 18:13:31;;;;;;;12.20;5.00;;;;;;;;;;5091519;28;20425;-66
2022/04/26 18:15:57;;;;;;;13.30;4.47;;;;;;;;;;5082991;28;20086;-70
2022/04/26 18:18:24;;;;;;;14.68;4.93;;;;;;;;;;5091266;28;20410;-67
2022/04/26 18:20:54;;;;;;;14.50;5.15;;;;;;;;;;5090985;28;20068;-68
2022/04/26 18:23:21;;;;;;;12.68;5.40;;;;;;;;;;5082964;28;21221;-67
2022/04/26 18:28:31;;;;;;;15.50;5.30;;;;;;;;;;5070496;28;20068;-67
2022/04/26 18:31:01;;;;;;;16.05;5.30;;;;;;;;;;5069241;28;20064;-66
2022/04/26 18:33:28;;;;;;;15.48;4.82;;;;;;;;;;5080980;28;20505;-66
2022/04/26 18:35:54;;;;;;;12.60;4.80;;;;;;;;;;5071909;28;20048;-65
2022/04/26 18:38:21;;;;;;;13.05;4.68;;;;;;;;;;5085309;28;20079;-67
2022/04/26 18:40:48;;;;;;;14.20;4.85;;;;;;;;;;5085015;28;20127;-66
2022/04/26 18:43:14;;;;;;;16.33;4.75;;;;;;;;;;5086040;28;20052;-66
2022/04/26 18:45:40;;;;;;;;;;;;;;;;;;5090905;28;20044;-65
2022/04/26 18:48:07;;;;;;;12.00;4.30;;;;;;;;;;5083109;28;20084;-66
2022/04/26 18:50:33;;;;;;;14.90;5.43;;;;;;;;;;5094954;28;20444;-66
2022/04/26 18:53:00;;;;;;;15.23;4.75;;;;;;;;;;5093723;28;20092;-66
2022/04/26 18:55:26;;;;;;;14.73;4.97;;;;;;;;;;5110404;28;20067;-65
2022/04/26 18:57:52;;;;;;;11.57;4.88;;;;;;;;;;5111166;28;20048;-66
2022/04/26 19:00:18;;;;;;;14.20;4.93;;;;;;;;;;5109914;28;20044;-67
2022/04/26 19:02:44;;;;;;;12.90;4.68;;;;;;;;;;5079163;28;20464;-66
2022/04/26 19:05:10;;;;;;;13.73;4.45;;;;;;;;;;5097194;28;20054;-66
2022/04/26 19:07:38;;;;;;;13.75;5.00;;;;;;;;;;5079587;28;20128;-66
2022/04/26 19:12:49;;;;;;;14.48;5.20;;;;;;;;;;5081142;28;20040;-66
2022/04/26 19:15:15;;;;;;;15.32;5.78;;;;;;;;;;5081673;28;20060;-66
2022/04/26 19:17:42;;;;;;;16.38;5.20;;;;;;;;;;5084567;28;20068;-66